Girolata — FPOD — position and weather

sailwx.info

Track history (hours):
 
Tides and Currents Weather Stations Pressure Air Temp Water Temp Dewpoint Dewpoint Depression Visibility Wind Speed Wind Dir Waves Ship Positions

Girolata

Last reported at 2019-Sep-19 19:24 UTC. Time now 2019-Sep-19 19:57 UTC.
Position N 42°01' E 008°04'.

Length 177 m; beam 27 m.

Type: Ship. MMSI: 226245000.

Date/timePositionNaut miles runAvg speedWind from/ knotsBaromVisibWave heightAir tempDewpointWater temp
2019-Sep-19 19:24N 42°01' E 008°04'817.0
2019-Sep-19 18:55N 41°57' E 008°13'717.0
2019-Sep-19 18:29N 41°54' E 008°22'1315.7
2019-Sep-19 17:40N 41°50' E 008°38'11 0.8
2019-Sep-19 03:03N 41°53' E 008°24'517.4
2019-Sep-19 02:48N 41°55' E 008°19'65 2.3
2019-Sep-17 22:37N 42°27' E 007°02'316.4
2019-Sep-17 22:27N 42°26' E 007°05'716.6
2019-Sep-17 22:00N 42°22' E 007°14'816.7
2019-Sep-17 21:30N 42°18' E 007°23'816.8
2019-Sep-17 21:00N 42°14' E 007°33'816.8
2019-Sep-17 20:30N 42°10' E 007°43'816.8
2019-Sep-17 20:00N 42°06' E 007°53'816.5
2019-Sep-17 19:30N 42°02' E 008°03'816.8
2019-Sep-17 19:00N 41°57' E 008°13'816.5
2019-Sep-17 18:29N 41°53' E 008°22'915.7
2019-Sep-17 17:57N 41°50' E 008°33'10 0.7
2019-Sep-17 04:11N 41°54' E 008°45'314.5
2019-Sep-17 04:00N 41°52' E 008°43'815.9
2019-Sep-17 03:30N 41°49' E 008°33'917.3
2019-Sep-17 03:00N 41°53' E 008°23'917.3
2019-Sep-17 02:30N 41°57' E 008°13'917.5
2019-Sep-17 02:00N 42°02' E 008°02'917.6
2019-Sep-17 01:30N 42°06' E 007°52'917.4
2019-Sep-17 01:00N 42°10' E 007°42'917.4
2019-Sep-17 00:30N 42°14' E 007°32'917.3
2019-Sep-17 00:00N 42°19' E 007°22'917.2
2019-Sep-16 23:30N 42°23' E 007°11'917.2
2019-Sep-16 23:00N 42°27' E 007°01'917.2
2019-Sep-16 22:30N 42°31' E 006°51'917.3
2019-Sep-16 22:00N 42°36' E 006°41'917.4
2019-Sep-16 21:30N 42°40' E 006°31'917.5
2019-Sep-16 21:00N 42°44' E 006°20'917.4
2019-Sep-16 20:30N 42°48' E 006°10'917.4
2019-Sep-16 19:58N 42°53' E 005°59'3715.9
2019-Sep-16 17:38N 43°17' E 005°20'28 1.8
2019-Sep-16 02:18N 42°58' E 005°48'2516.4
2019-Sep-16 00:45N 42°45' E 006°18'416.0
2019-Sep-16 00:29N 42°43' E 006°23'715.5
2019-Sep-16 00:00N 42°39' E 006°32'815.6
2019-Sep-15 23:31N 42°36' E 006°41'815.8
2019-Sep-15 23:01N 42°32' E 006°51'815.9
2019-Sep-15 22:31N 42°28' E 007°00'816.0
2019-Sep-15 22:01N 42°24' E 007°09'815.9
2019-Sep-15 21:31N 42°20' E 007°19'816.5
2019-Sep-15 21:01N 42°16' E 007°28'816.0
2019-Sep-15 20:31N 42°12' E 007°38'816.2
2019-Sep-15 20:01N 42°08' E 007°47'816.4
2019-Sep-15 19:30N 42°04' E 007°57'918.8
2019-Sep-15 19:00N 41°59' E 008°08'918.7
2019-Sep-15 18:31N 41°55' E 008°19'917.3
2019-Sep-15 18:00N 41°51' E 008°29'815.5
2019-Sep-15 17:31N 41°51' E 008°40'610.4
2019-Sep-15 16:55N 41°56' E 008°45'0 0.0
2019-Sep-15 12:07N 41°56' E 008°45'0 0.0
2019-Sep-15 09:55N 41°56' E 008°45'0 0.0
2019-Sep-15 09:16N 41°56' E 008°45'4 1.1
2019-Sep-15 05:14N 41°52' E 008°42'314.9
2019-Sep-15 05:00N 41°50' E 008°39'713.7
2019-Sep-15 04:30N 41°50' E 008°29'815.0
2019-Sep-15 04:00N 41°54' E 008°20'815.9
2019-Sep-15 03:30N 41°57' E 008°11'815.9
2019-Sep-15 03:00N 42°01' E 008°02'715.0
2019-Sep-15 02:31N 42°04' E 007°53'815.2
2019-Sep-15 02:01N 42°08' E 007°44'815.5
2019-Sep-15 01:30N 42°12' E 007°35'815.5
2019-Sep-15 01:00N 42°16' E 007°26'815.4
2019-Sep-15 00:30N 42°20' E 007°17'815.3
2019-Sep-15 00:00N 42°24' E 007°08'815.3
2019-Sep-14 23:31N 42°27' E 006°59'815.3
2019-Sep-14 23:00N 42°31' E 006°50'1015.3
2019-Sep-14 22:21N 42°36' E 006°38'69 3.8
2019-Sep-14 03:57N 43°13' E 005°18'5516.5
2019-Sep-14 00:36N 42°44' E 006°23'216.3
2019-Sep-14 00:30N 42°43' E 006°24'1016.1
2019-Sep-13 23:54N 42°38' E 006°35'616.1
2019-Sep-13 23:30N 42°35' E 006°43'816.2
2019-Sep-13 23:00N 42°31' E 006°53'816.3
2019-Sep-13 22:30N 42°28' E 007°03'816.2
2019-Sep-13 22:00N 42°23' E 007°11'816.3
2019-Sep-13 21:30N 42°19' E 007°21'816.3
2019-Sep-13 21:00N 42°15' E 007°31'816.4
2019-Sep-13 20:30N 42°11' E 007°40'816.4
2019-Sep-13 20:00N 42°07' E 007°50'918.3
2019-Sep-13 19:30N 42°02' E 008°01'918.5
2019-Sep-13 19:00N 41°58' E 008°12'918.3
2019-Sep-13 18:30N 41°53' E 008°22'816.4
2019-Sep-13 18:00N 41°49' E 008°32'11 1.7
2019-Sep-13 11:30N 41°56' E 008°45'0 0.0
2019-Sep-13 10:57N 41°56' E 008°45'0 0.0
2019-Sep-13 10:30N 41°56' E 008°45'0 0.0
2019-Sep-13 10:00N 41°56' E 008°45'0 0.0
2019-Sep-13 09:30N 41°56' E 008°45'0 0.0
2019-Sep-13 09:00N 41°56' E 008°45'0 0.0
2019-Sep-13 08:09N 41°56' E 008°45'0 0.0
2019-Sep-13 07:39N 41°56' E 008°45'0 0.0
2019-Sep-13 06:42N 41°56' E 008°45'0 0.0
2019-Sep-13 06:30N 41°56' E 008°45'0 0.1
2019-Sep-13 04:17N 41°55' E 008°45'411.7
2019-Sep-13 03:56N 41°52' E 008°42'716.3
2019-Sep-13 03:30N 41°49' E 008°34'917.1
2019-Sep-13 03:00N 41°53' E 008°23'1817.7
2019-Sep-13 01:59N 42°02' E 008°02'1017.4
2019-Sep-13 01:24N 42°07' E 007°50'717.4
2019-Sep-13 01:00N 42°10' E 007°42'917.5
2019-Sep-13 00:30N 42°14' E 007°32'917.5
2019-Sep-13 00:00N 42°18' E 007°21'917.8
2019-Sep-12 23:30N 42°23' E 007°11'917.6
2019-Sep-12 23:00N 42°27' E 007°00'917.6
2019-Sep-12 22:30N 42°31' E 006°50'917.6
2019-Sep-12 22:00N 42°36' E 006°40'917.5
2019-Sep-12 21:29N 42°41' E 006°29'17 0.8
2019-Sep-11 23:24N 42°33' E 006°49'716.4
2019-Sep-11 23:00N 42°30' E 006°57'816.8
2019-Sep-11 22:31N 42°25' E 007°06'917.1
2019-Sep-11 22:00N 42°21' E 007°16'816.9
2019-Sep-11 21:31N 42°17' E 007°26'816.8
2019-Sep-11 21:00N 42°12' E 007°36'816.7
2019-Sep-11 20:31N 42°08' E 007°45'816.8
2019-Sep-11 20:01N 42°03' E 007°55'816.8
2019-Sep-11 19:31N 41°59' E 008°04'917.1
2019-Sep-11 19:00N 41°54' E 008°14'817.0
2019-Sep-11 18:30N 41°48' E 008°23'815.4
2019-Sep-11 18:00N 41°46' E 008°32'917.7
2019-Sep-11 17:31N 41°51' E 008°42'5 2.3
2019-Sep-11 15:26N 41°56' E 008°45'0 0.0
2019-Sep-11 14:44N 41°56' E 008°45'0 0.0
2019-Sep-11 13:56N 41°56' E 008°45'16 1.5
2019-Sep-11 03:00N 41°53' E 008°23'  
Track history (hours):
 
Tides and Currents Weather Stations Pressure Air Temp Water Temp Dewpoint Dewpoint Depression Visibility Wind Speed Wind Dir Waves Ship Positions

Girolata

Last reported at 2019-Sep-19 19:24 UTC. Time now 2019-Sep-19 19:57 UTC.
Position N 42°01' E 008°04'.

Length 177 m; beam 27 m.

Type: Ship. MMSI: 226245000.

Date/timePositionNaut miles runAvg speedWind from/ knotsBaromVisibWave heightAir tempDewpointWater temp
2019-Sep-19 19:24N 42°01' E 008°04'817.0
2019-Sep-19 18:55N 41°57' E 008°13'717.0
2019-Sep-19 18:29N 41°54' E 008°22'1315.7
2019-Sep-19 17:40N 41°50' E 008°38'11 0.8
2019-Sep-19 03:03N 41°53' E 008°24'517.4
2019-Sep-19 02:48N 41°55' E 008°19'65 2.3
2019-Sep-17 22:37N 42°27' E 007°02'316.4
2019-Sep-17 22:27N 42°26' E 007°05'716.6
2019-Sep-17 22:00N 42°22' E 007°14'816.7
2019-Sep-17 21:30N 42°18' E 007°23'816.8
2019-Sep-17 21:00N 42°14' E 007°33'816.8
2019-Sep-17 20:30N 42°10' E 007°43'816.8
2019-Sep-17 20:00N 42°06' E 007°53'816.5
2019-Sep-17 19:30N 42°02' E 008°03'816.8
2019-Sep-17 19:00N 41°57' E 008°13'816.5
2019-Sep-17 18:29N 41°53' E 008°22'915.7
2019-Sep-17 17:57N 41°50' E 008°33'10 0.7
2019-Sep-17 04:11N 41°54' E 008°45'314.5
2019-Sep-17 04:00N 41°52' E 008°43'815.9
2019-Sep-17 03:30N 41°49' E 008°33'917.3
2019-Sep-17 03:00N 41°53' E 008°23'917.3
2019-Sep-17 02:30N 41°57' E 008°13'917.5
2019-Sep-17 02:00N 42°02' E 008°02'917.6
2019-Sep-17 01:30N 42°06' E 007°52'917.4
2019-Sep-17 01:00N 42°10' E 007°42'917.4
2019-Sep-17 00:30N 42°14' E 007°32'917.3
2019-Sep-17 00:00N 42°19' E 007°22'917.2
2019-Sep-16 23:30N 42°23' E 007°11'917.2
2019-Sep-16 23:00N 42°27' E 007°01'917.2
2019-Sep-16 22:30N 42°31' E 006°51'917.3
2019-Sep-16 22:00N 42°36' E 006°41'917.4
2019-Sep-16 21:30N 42°40' E 006°31'917.5
2019-Sep-16 21:00N 42°44' E 006°20'917.4
2019-Sep-16 20:30N 42°48' E 006°10'917.4
2019-Sep-16 19:58N 42°53' E 005°59'3715.9
2019-Sep-16 17:38N 43°17' E 005°20'28 1.8
2019-Sep-16 02:18N 42°58' E 005°48'2516.4
2019-Sep-16 00:45N 42°45' E 006°18'416.0
2019-Sep-16 00:29N 42°43' E 006°23'715.5
2019-Sep-16 00:00N 42°39' E 006°32'815.6
2019-Sep-15 23:31N 42°36' E 006°41'815.8
2019-Sep-15 23:01N 42°32' E 006°51'815.9
2019-Sep-15 22:31N 42°28' E 007°00'816.0
2019-Sep-15 22:01N 42°24' E 007°09'815.9
2019-Sep-15 21:31N 42°20' E 007°19'816.5
2019-Sep-15 21:01N 42°16' E 007°28'816.0
2019-Sep-15 20:31N 42°12' E 007°38'816.2
2019-Sep-15 20:01N 42°08' E 007°47'816.4
2019-Sep-15 19:30N 42°04' E 007°57'918.8
2019-Sep-15 19:00N 41°59' E 008°08'918.7
2019-Sep-15 18:31N 41°55' E 008°19'917.3
2019-Sep-15 18:00N 41°51' E 008°29'815.5
2019-Sep-15 17:31N 41°51' E 008°40'610.4
2019-Sep-15 16:55N 41°56' E 008°45'0 0.0
2019-Sep-15 12:07N 41°56' E 008°45'0 0.0
2019-Sep-15 09:55N 41°56' E 008°45'0 0.0
2019-Sep-15 09:16N 41°56' E 008°45'4 1.1
2019-Sep-15 05:14N 41°52' E 008°42'314.9
2019-Sep-15 05:00N 41°50' E 008°39'713.7
2019-Sep-15 04:30N 41°50' E 008°29'815.0
2019-Sep-15 04:00N 41°54' E 008°20'815.9
2019-Sep-15 03:30N 41°57' E 008°11'815.9
2019-Sep-15 03:00N 42°01' E 008°02'715.0
2019-Sep-15 02:31N 42°04' E 007°53'815.2
2019-Sep-15 02:01N 42°08' E 007°44'815.5
2019-Sep-15 01:30N 42°12' E 007°35'815.5
2019-Sep-15 01:00N 42°16' E 007°26'815.4
2019-Sep-15 00:30N 42°20' E 007°17'815.3
2019-Sep-15 00:00N 42°24' E 007°08'815.3
2019-Sep-14 23:31N 42°27' E 006°59'815.3
2019-Sep-14 23:00N 42°31' E 006°50'1015.3
2019-Sep-14 22:21N 42°36' E 006°38'69 3.8
2019-Sep-14 03:57N 43°13' E 005°18'5516.5
2019-Sep-14 00:36N 42°44' E 006°23'216.3
2019-Sep-14 00:30N 42°43' E 006°24'1016.1
2019-Sep-13 23:54N 42°38' E 006°35'616.1
2019-Sep-13 23:30N 42°35' E 006°43'816.2
2019-Sep-13 23:00N 42°31' E 006°53'816.3
2019-Sep-13 22:30N 42°28' E 007°03'816.2
2019-Sep-13 22:00N 42°23' E 007°11'816.3
2019-Sep-13 21:30N 42°19' E 007°21'816.3
2019-Sep-13 21:00N 42°15' E 007°31'816.4
2019-Sep-13 20:30N 42°11' E 007°40'816.4
2019-Sep-13 20:00N 42°07' E 007°50'918.3
2019-Sep-13 19:30N 42°02' E 008°01'918.5
2019-Sep-13 19:00N 41°58' E 008°12'918.3
2019-Sep-13 18:30N 41°53' E 008°22'816.4
2019-Sep-13 18:00N 41°49' E 008°32'11 1.7
2019-Sep-13 11:30N 41°56' E 008°45'0 0.0
2019-Sep-13 10:57N 41°56' E 008°45'0 0.0
2019-Sep-13 10:30N 41°56' E 008°45'0 0.0
2019-Sep-13 10:00N 41°56' E 008°45'0 0.0
2019-Sep-13 09:30N 41°56' E 008°45'0 0.0
2019-Sep-13 09:00N 41°56' E 008°45'0 0.0
2019-Sep-13 08:09N 41°56' E 008°45'0 0.0
2019-Sep-13 07:39N 41°56' E 008°45'0 0.0
2019-Sep-13 06:42N 41°56' E 008°45'0 0.0
2019-Sep-13 06:30N 41°56' E 008°45'0 0.1
2019-Sep-13 04:17N 41°55' E 008°45'411.7
2019-Sep-13 03:56N 41°52' E 008°42'716.3
2019-Sep-13 03:30N 41°49' E 008°34'917.1
2019-Sep-13 03:00N 41°53' E 008°23'1817.7
2019-Sep-13 01:59N 42°02' E 008°02'1017.4
2019-Sep-13 01:24N 42°07' E 007°50'717.4
2019-Sep-13 01:00N 42°10' E 007°42'917.5
2019-Sep-13 00:30N 42°14' E 007°32'917.5
2019-Sep-13 00:00N 42°18' E 007°21'917.8
2019-Sep-12 23:30N 42°23' E 007°11'917.6
2019-Sep-12 23:00N 42°27' E 007°00'917.6
2019-Sep-12 22:30N 42°31' E 006°50'917.6
2019-Sep-12 22:00N 42°36' E 006°40'917.5
2019-Sep-12 21:29N 42°41' E 006°29'17 0.8
2019-Sep-11 23:24N 42°33' E 006°49'716.4
2019-Sep-11 23:00N 42°30' E 006°57'816.8
2019-Sep-11 22:31N 42°25' E 007°06'917.1
2019-Sep-11 22:00N 42°21' E 007°16'816.9
2019-Sep-11 21:31N 42°17' E 007°26'816.8
2019-Sep-11 21:00N 42°12' E 007°36'816.7
2019-Sep-11 20:31N 42°08' E 007°45'816.8
2019-Sep-11 20:01N 42°03' E 007°55'816.8
2019-Sep-11 19:31N 41°59' E 008°04'917.1
2019-Sep-11 19:00N 41°54' E 008°14'817.0
2019-Sep-11 18:30N 41°48' E 008°23'815.4
2019-Sep-11 18:00N 41°46' E 008°32'917.7
2019-Sep-11 17:31N 41°51' E 008°42'5 2.3
2019-Sep-11 15:26N 41°56' E 008°45'0 0.0
2019-Sep-11 14:44N 41°56' E 008°45'0 0.0
2019-Sep-11 13:56N 41°56' E 008°45'16 1.5
2019-Sep-11 03:00N 41°53' E 008°23'  

Dump ship's entire track history